Aurora, Nevada
Current Conditions -  °F | °C
As of 8:55 AM on Saturday 25 Oct 2014 (Local Time) from KMEV Reporting Station
Clear Clear  
Wind Chill: 59°   Ceiling: Unl
Heat Index: 59°   Visibility: 10mi
Dew Point: 25°   Wind: 20mph
Humidity: 27%   Direction: 180°S
Pressure: 30.01"   Gusts: 24mph
Location:  38.7596°N, 119.34°W
Report Text: KMEV 251555Z AUTO 18017G21KT 10SM CLR 15/M04 A3001 RMK AO2
Loading
Personal Weather Stations






























Interactive Weather Map
Tropical Storm Tracking
New forecast layout! Learn more

10-Day Weather Forecast

Advertisements
Track Severe Weather on mobile